Time;durP1;ratioP1;P1;durP2;ratioP2;P2;SDS_P1;SDS_P2;PMS_P1;PMS_P2;Temp;Humidity;BMP_temperature;BMP_pressure;BME280_temperature;BME280_humidity;BME280_pressure;Samples;Min_cycle;Max_cycle;Signal;HPM_P1;HPM_P2
2022/05/16 00:00:25;;;;;;;1.38;0.57;;;;;;;20.85;38.44;98235.16;5154631;27;20039;-64
2022/05/16 00:02:51;;;;;;;2.28;0.60;;;;;;;20.83;39.06;98238.06;5154742;27;20113;-64
2022/05/16 00:05:17;;;;;;;0.98;0.50;;;;;;;20.83;38.89;98242.59;5155655;27;20026;-64
2022/05/16 00:07:43;;;;;;;1.58;0.70;;;;;;;20.82;39.19;98236.41;5155285;27;20182;-64
2022/05/16 00:10:09;;;;;;;1.13;0.70;;;;;;;20.82;39.12;98240.94;5153952;27;20041;-64
2022/05/16 00:12:35;;;;;;;1.58;0.80;;;;;;;20.80;39.19;98229.63;5155007;27;20062;-64
2022/05/16 00:15:01;;;;;;;0.60;0.45;;;;;;;20.79;39.26;98234.16;5154955;27;20034;-65
2022/05/16 00:17:26;;;;;;;1.08;0.45;;;;;;;20.78;39.29;98229.81;5155238;27;20484;-64
2022/05/16 00:19:52;;;;;;;1.15;0.50;;;;;;;20.79;39.55;98223.41;5153987;27;20117;-64
2022/05/16 00:22:17;;;;;;;2.25;0.40;;;;;;;20.77;39.36;98232.75;5155329;27;20083;-64
2022/05/16 00:24:43;;;;;;;0.93;0.50;;;;;;;20.78;39.83;98231.69;5155115;27;20039;-63
2022/05/16 00:27:10;;;;;;;2.80;1.00;;;;;;;20.78;40.39;98234.41;5155124;27;20022;-63
2022/05/16 00:29:37;;;;;;;1.25;0.73;;;;;;;20.75;40.99;98232.94;5154271;27;20023;-64
2022/05/16 00:32:04;;;;;;;1.23;0.70;;;;;;;20.73;40.75;98237.72;5135535;27;20026;-64
2022/05/16 00:34:29;;;;;;;0.82;0.60;;;;;;;20.73;40.23;98233.16;5155157;27;20038;-64
2022/05/16 00:36:55;;;;;;;1.90;1.00;;;;;;;20.73;40.27;98237.72;5154731;27;20053;-64
2022/05/16 00:39:21;;;;;;;0.98;0.57;;;;;;;20.72;40.86;98236.06;5154723;27;20121;-64
2022/05/16 00:41:48;;;;;;;1.13;0.50;;;;;;;20.71;40.71;98237.91;5154989;27;20027;-64
2022/05/16 00:44:15;;;;;;;1.13;0.70;;;;;;;20.71;40.32;98237.91;5154904;27;20034;-63
2022/05/16 00:46:40;;;;;;;1.30;0.40;;;;;;;20.70;40.23;98236.25;5154778;27;20396;-64
2022/05/16 00:49:13;;;;;;;1.63;0.70;;;;;;;20.69;40.45;98239.19;5154722;27;20035;-64
2022/05/16 00:51:46;;;;;;;1.52;0.55;;;;;;;20.69;40.58;98241.88;5150406;27;20037;-65
2022/05/16 00:54:27;;;;;;;1.73;0.70;;;;;;;20.67;40.51;98231.31;5151427;27;20033;-65
2022/05/16 00:56:59;;;;;;;0.90;0.57;;;;;;;20.67;40.64;98244.75;5154364;27;20029;-65
2022/05/16 00:59:33;;;;;;;0.68;0.47;;;;;;;20.66;40.22;98247.69;5154537;27;20038;-65
2022/05/16 01:04:48;;;;;;;0.55;0.47;;;;;;;20.62;40.74;98247.28;5152525;27;20045;-65
2022/05/16 01:07:18;;;;;;;;;;;;;;;20.56;41.03;98240.09;5154612;27;20038;-65
2022/05/16 01:09:43;;;;;;;0.98;0.50;;;;;;;20.57;40.76;98247.13;5154220;27;19918;-65
2022/05/16 01:12:09;;;;;;;0.70;0.50;;;;;;;20.57;40.62;98244.44;5148865;27;20042;-65
2022/05/16 01:14:50;;;;;;;0.80;0.52;;;;;;;20.59;40.51;98248.53;5154066;27;20113;-65
2022/05/16 01:17:16;;;;;;;1.02;0.68;;;;;;;20.56;40.49;98257.06;5154209;27;20389;-65
2022/05/16 01:19:42;;;;;;;1.15;0.60;;;;;;;20.57;41.08;98261.38;5153725;27;20064;-65
2022/05/16 01:22:32;;;;;;;1.42;0.60;;;;;;;20.56;41.14;98254.38;5153865;27;20075;-65
2022/05/16 01:25:12;;;;;;;1.23;0.70;;;;;;;20.56;40.44;98254.38;5141674;27;20106;-66
2022/05/16 01:27:42;;;;;;;0.52;0.50;;;;;;;20.56;41.09;98256.22;5153741;27;20034;-65
2022/05/16 01:30:08;;;;;;;0.65;0.45;;;;;;;20.54;41.09;98258.28;5154108;27;20030;-65
2022/05/16 01:32:34;;;;;;;0.70;0.40;;;;;;;20.55;41.31;98257.25;5153990;27;20083;-66
2022/05/16 01:34:59;;;;;;;0.75;0.32;;;;;;;20.54;41.07;98266.34;5153607;27;20030;-64
2022/05/16 01:38:18;;;;;;;0.57;0.50;;;;;;;20.54;41.08;98260.97;5150064;27;20426;-66
2022/05/16 01:40:10;;;;;;;0.80;0.50;;;;;;;20.52;41.37;98266.59;5153405;27;20042;-66
2022/05/16 01:42:36;;;;;;;0.85;0.50;;;;;;;20.52;41.45;98274.66;5153442;27;20030;-66
2022/05/16 01:45:01;;;;;;;0.70;0.45;;;;;;;20.50;41.79;98265.16;5153360;27;20110;-65
2022/05/16 01:47:27;;;;;;;0.30;0.30;;;;;;;20.52;42.11;98269.28;5153799;27;20071;-66
2022/05/16 01:49:53;;;;;;;1.02;0.50;;;;;;;20.51;41.99;98275.69;5149207;27;20038;-65
2022/05/16 01:52:18;;;;;;;3.15;0.50;;;;;;;20.52;41.95;98279.19;5153766;27;20477;-65
2022/05/16 01:54:43;;;;;;;0.75;0.38;;;;;;;20.52;42.31;98277.31;5153404;27;20034;-66
2022/05/16 01:57:09;;;;;;;1.55;0.40;;;;;;;20.52;42.03;98281.88;5153641;27;20360;-66
2022/05/16 01:59:34;;;;;;;0.60;0.50;;;;;;;20.52;41.78;98284.56;5153135;27;20030;-67
2022/05/16 02:02:00;;;;;;;1.25;0.40;;;;;;;20.53;41.74;98283.50;5153606;27;20050;-66
2022/05/16 02:04:25;;;;;;;2.60;0.50;;;;;;;20.51;41.78;98281.06;5152482;27;20031;-66
2022/05/16 02:06:51;;;;;;;1.13;0.50;;;;;;;20.53;42.16;98294.25;5152649;27;20037;-64
2022/05/16 02:09:17;;;;;;;1.27;0.65;;;;;;;20.54;41.71;98293.22;5152973;27;20392;-66
2022/05/16 02:11:42;;;;;;;1.10;0.38;;;;;;;20.52;42.11;98288.06;5153062;27;20141;-67
2022/05/16 02:14:08;;;;;;;1.00;0.50;;;;;;;20.53;42.09;98287.03;5152243;27;21385;-67
2022/05/16 02:16:33;;;;;;;0.85;0.40;;;;;;;20.54;42.04;98287.84;5152652;27;20087;-66
2022/05/16 02:18:59;;;;;;;0.90;0.50;;;;;;;20.54;41.93;98279.78;5153099;27;20498;-65
2022/05/16 02:26:52;;;;;;;0.55;0.38;;;;;;;20.54;41.87;98291.38;5149067;27;20424;-66
2022/05/16 02:29:18;;;;;;;0.65;0.50;;;;;;;20.54;41.62;98294.06;5153014;27;20039;-66
2022/05/16 02:31:45;;;;;;;0.85;0.40;;;;;;;20.53;41.62;98295.09;5148533;27;20034;-66
2022/05/16 02:34:11;;;;;;;0.57;0.45;;;;;;;20.54;41.94;98293.22;5151636;27;20027;-67
2022/05/16 02:36:36;;;;;;;0.47;0.40;;;;;;;20.52;40.95;98285.38;5133970;27;20477;-67
2022/05/16 02:39:02;;;;;;;0.45;0.40;;;;;;;20.54;41.23;98296.75;5153035;27;20037;-67
2022/05/16 02:41:28;;;;;;;2.08;0.57;;;;;;;20.56;41.50;98301.91;5152385;27;20420;-65
2022/05/16 02:43:53;;;;;;;0.77;0.50;;;;;;;20.56;41.28;98304.59;5152444;27;20034;-65
2022/05/16 02:46:19;;;;;;;0.63;0.40;;;;;;;20.56;42.16;98294.66;5152835;27;20062;-67
2022/05/16 02:48:45;;;;;;;1.42;0.45;;;;;;;20.59;41.18;98298.78;5152783;27;20471;-66
2022/05/16 02:51:10;;;;;;;0.90;0.55;;;;;;;20.61;41.59;98303.94;5151445;27;20396;-66
2022/05/16 02:53:36;;;;;;;1.85;0.40;;;;;;;20.64;41.52;98307.03;5152501;27;20033;-67
2022/05/16 02:56:02;;;;;;;0.55;0.40;;;;;;;20.65;42.21;98306.00;5152692;27;20039;-65
2022/05/16 02:58:27;;;;;;;0.40;0.40;;;;;;;20.68;42.15;98308.22;5152917;27;20174;-65
2022/05/16 03:00:53;;;;;;;0.55;0.47;;;;;;;20.70;40.63;98303.47;5154129;27;20027;-65
2022/05/16 03:03:19;;;;;;;0.85;0.68;;;;;;;20.71;39.68;98309.66;5153671;27;20114;-64
2022/05/16 03:05:44;;;;;;;0.85;0.50;;;;;;;20.68;38.79;98316.28;5153950;27;20069;-65
2022/05/16 03:08:10;;;;;;;0.90;0.40;;;;;;;20.66;38.47;98317.56;5153423;27;20034;-65
2022/05/16 03:10:36;;;;;;;3.15;0.75;;;;;;;20.65;38.45;98311.38;5153699;27;20046;-65
2022/05/16 03:13:02;;;;;;;1.38;0.30;;;;;;;20.64;37.71;98308.88;5153325;27;20074;-65
2022/05/16 03:15:30;;;;;;;0.40;0.40;;;;;;;20.63;37.44;98307.22;5143587;27;20181;-65
2022/05/16 03:17:55;;;;;;;1.20;0.22;;;;;;;20.64;37.16;98320.47;5133518;27;20042;-66
2022/05/16 03:20:21;;;;;;;0.47;0.35;;;;;;;20.66;36.94;98312.19;5154135;27;20034;-65
2022/05/16 03:22:47;;;;;;;0.77;0.40;;;;;;;20.67;37.09;98320.00;5153673;27;20083;-65
2022/05/16 03:25:13;;;;;;;1.17;0.32;;;;;;;20.70;36.96;98318.78;5154096;27;20091;-66
2022/05/16 03:27:39;;;;;;;0.57;0.28;;;;;;;20.72;36.74;98311.31;5153159;27;20393;-66
2022/05/16 03:30:07;;;;;;;1.35;0.40;;;;;;;20.73;36.91;98313.78;5150062;27;20061;-66
2022/05/16 03:32:33;;;;;;;1.15;0.68;;;;;;;20.74;36.75;98320.81;5153488;27;20118;-66
2022/05/16 03:34:58;;;;;;;0.50;0.40;;;;;;;20.77;36.71;98318.75;5135152;27;20130;-65
2022/05/16 03:37:23;;;;;;;0.32;0.22;;;;;;;20.79;36.43;98319.38;5157505;27;20030;-66
2022/05/16 03:42:34;;;;;;;0.90;0.45;;;;;;;20.86;36.07;98320.13;5157053;27;20505;-67
2022/05/16 03:45:00;;;;;;;0.47;0.32;;;;;;;20.90;36.79;98321.34;5156641;27;20121;-66
2022/05/16 03:47:26;;;;;;;2.25;0.60;;;;;;;20.97;36.43;98319.41;5157046;27;20110;-66
2022/05/16 03:49:51;;;;;;;1.52;0.30;;;;;;;21.11;36.06;98327.38;5157484;27;20087;-66
2022/05/16 03:52:17;;;;;;;0.90;0.20;;;;;;;21.19;35.94;98316.38;5157135;27;20030;-66
2022/05/16 03:54:42;;;;;;;0.85;0.50;;;;;;;21.25;35.71;98322.72;5156386;27;20129;-66
2022/05/16 03:57:08;;;;;;;0.70;0.25;;;;;;;21.31;35.72;98321.84;5157155;27;20039;-66
2022/05/16 03:59:33;;;;;;;0.40;0.32;;;;;;;21.39;35.41;98323.44;5156928;27;20117;-66
2022/05/16 04:01:59;;;;;;;0.43;0.35;;;;;;;21.40;35.35;98322.38;5156790;27;20026;-66
2022/05/16 04:04:27;;;;;;;0.88;0.40;;;;;;;21.41;35.66;98321.34;5156199;27;20169;-66
2022/05/16 04:06:54;;;;;;;2.40;0.40;;;;;;;21.40;35.45;98322.38;5156538;27;20042;-66
2022/05/16 04:09:20;;;;;;;3.47;0.50;;;;;;;21.38;35.88;98321.78;5156071;27;20040;-66
2022/05/16 04:11:46;;;;;;;1.10;0.65;;;;;;;21.39;35.54;98332.31;5156754;27;20043;-67
2022/05/16 04:14:11;;;;;;;0.50;0.30;;;;;;;21.38;34.97;98321.78;5156355;27;20481;-66
2022/05/16 04:16:37;;;;;;;0.80;0.38;;;;;;;21.42;34.81;98321.13;5156332;27;20034;-66
2022/05/16 04:19:06;;;;;;;1.08;0.47;;;;;;;21.46;34.72;98316.97;5156433;27;20501;-66
2022/05/16 04:21:32;;;;;;;0.57;0.40;;;;;;;21.53;34.93;98322.28;5156593;27;20404;-66
2022/05/16 04:23:58;;;;;;;3.08;0.50;;;;;;;21.64;34.70;98324.25;5156028;27;20030;-67
2022/05/16 04:26:23;;;;;;;2.78;0.55;;;;;;;21.76;34.64;98323.50;5156089;27;20138;-67
2022/05/16 04:28:49;;;;;;;2.45;0.38;;;;;;;21.92;34.09;98330.16;5155812;27;20038;-67
2022/05/16 04:31:14;;;;;;;0.98;0.30;;;;;;;22.10;34.24;98323.97;5156389;27;20031;-67
2022/05/16 04:33:40;;;;;;;1.05;0.50;;;;;;;22.39;33.90;98318.81;5155984;27;20034;-67
2022/05/16 04:36:06;;;;;;;0.80;0.47;;;;;;;22.69;33.13;98318.03;5153852;27;20034;-67
2022/05/16 04:38:31;;;;;;;0.50;0.25;;;;;;;22.92;33.18;98328.06;5135448;27;20481;-66
2022/05/16 04:43:41;;;;;;;1.45;0.43;;;;;;;23.41;32.34;98314.41;5139045;27;20097;-66
2022/05/16 04:46:07;;;;;;;0.70;0.40;;;;;;;23.56;32.30;98315.81;5155564;27;20038;-66
2022/05/16 04:48:33;;;;;;;2.50;0.65;;;;;;;23.68;32.99;98318.47;5155483;27;20430;-66
2022/05/16 04:50:59;;;;;;;1.50;0.38;;;;;;;23.72;32.37;98315.09;5156054;27;20046;-67
2022/05/16 04:53:25;;;;;;;1.05;0.30;;;;;;;23.78;31.91;98311.44;5155456;27;20404;-66
2022/05/16 04:55:51;;;;;;;0.43;0.20;;;;;;;23.88;31.86;98312.72;5155435;27;20079;-66
2022/05/16 04:58:16;;;;;;;3.83;0.55;;;;;;;23.96;31.91;98319.63;5155410;27;20034;-66
2022/05/16 05:00:42;;;;;;;0.40;0.22;;;;;;;24.01;31.86;98320.59;5155391;27;20103;-67
2022/05/16 05:03:07;;;;;;;0.65;0.35;;;;;;;24.05;31.91;98323.63;5155211;27;20034;-67
2022/05/16 05:05:35;;;;;;;1.65;0.20;;;;;;;24.10;32.07;98317.50;5155186;27;20477;-67
2022/05/16 05:08:01;;;;;;;2.40;0.30;;;;;;;24.11;31.86;98321.84;5154858;27;20155;-66
2022/05/16 05:16:06;;;;;;;4.95;0.30;;;;;;;24.15;31.27;98306.81;5156175;27;20037;-67
2022/05/16 05:18:31;;;;;;;1.15;0.30;;;;;;;24.06;31.09;98304.47;5154970;27;20465;-68
2022/05/16 05:20:57;;;;;;;0.50;0.50;;;;;;;23.93;31.15;98305.53;5155159;27;20083;-68
2022/05/16 05:23:22;;;;;;;0.55;0.40;;;;;;;23.88;30.73;98304.63;5154908;27;20461;-67
2022/05/16 05:25:48;;;;;;;2.95;0.43;;;;;;;23.80;31.14;98296.88;5147379;27;20035;-67
2022/05/16 05:28:13;;;;;;;5.43;0.60;;;;;;;23.67;31.05;98301.47;5134686;27;20413;-67
2022/05/16 05:30:39;;;;;;;1.00;0.35;;;;;;;23.60;31.07;98306.19;5154803;27;20511;-67
2022/05/16 05:33:04;;;;;;;0.88;0.38;;;;;;;23.52;31.03;98307.38;5154869;27;20038;-67
2022/05/16 05:35:30;;;;;;;1.65;0.40;;;;;;;23.43;31.76;98303.38;5155000;27;20505;-67
2022/05/16 05:37:56;;;;;;;1.20;0.40;;;;;;;23.35;31.55;98309.94;5154845;27;20038;-67
2022/05/16 05:40:22;;;;;;;3.42;0.40;;;;;;;23.31;31.36;98300.66;5138630;27;20037;-68
2022/05/16 05:42:50;;;;;;;0.45;0.30;;;;;;;23.31;31.34;98300.66;5133792;27;20118;-66
2022/05/16 05:45:16;;;;;;;0.40;0.30;;;;;;;23.35;31.57;98309.94;5151331;27;20063;-66
2022/05/16 05:47:42;;;;;;;0.63;0.30;;;;;;;23.35;31.10;98307.22;5154998;27;20511;-65
2022/05/16 05:50:08;;;;;;;1.92;0.50;;;;;;;23.31;31.40;98298.78;5154592;27;20039;-65
2022/05/16 05:52:34;;;;;;;2.35;0.60;;;;;;;23.25;31.09;98301.59;5155285;27;20057;-66
2022/05/16 05:55:00;;;;;;;0.93;0.38;;;;;;;23.21;31.54;98305.81;5154203;27;20481;-65
2022/05/16 05:57:26;;;;;;;0.50;0.30;;;;;;;23.11;31.72;98312.59;5154809;27;20034;-66
2022/05/16 05:59:53;;;;;;;1.13;0.47;;;;;;;23.06;31.74;98308.97;5154008;27;20031;-66
2022/05/16 06:02:19;;;;;;;2.85;0.43;;;;;;;23.00;31.63;98308.00;5154366;27;20480;-66
2022/05/16 06:04:45;;;;;;;3.05;0.35;;;;;;;22.96;31.37;98309.53;5154124;27;20033;-66
2022/05/16 06:07:10;;;;;;;1.55;0.20;;;;;;;22.90;31.64;98308.59;5154729;27;20030;-66
2022/05/16 06:09:36;;;;;;;0.47;0.20;;;;;;;22.86;31.89;98319.00;5154541;27;20079;-66
2022/05/16 06:12:05;;;;;;;1.55;0.30;;;;;;;22.84;32.61;98307.63;5154276;27;20484;-66
2022/05/16 06:14:31;;;;;;;6.05;0.30;;;;;;;22.82;31.73;98307.03;5151127;27;20066;-66
2022/05/16 06:16:57;;;;;;;1.40;0.38;;;;;;;22.81;31.90;98316.19;5133893;27;20393;-66
2022/05/16 06:19:23;;;;;;;0.90;0.40;;;;;;;22.77;32.30;98314.19;5133514;27;20035;-66
2022/05/16 06:21:49;;;;;;;0.38;0.20;;;;;;;22.75;32.68;98310.88;5133820;28;20031;-67
2022/05/16 06:27:00;;;;;;;0.43;0.30;;;;;;;22.71;32.13;98322.13;5154382;27;20387;-67
2022/05/16 06:29:26;;;;;;;0.60;0.40;;;;;;;22.70;32.58;98315.09;5154354;27;20031;-66
2022/05/16 06:31:53;;;;;;;1.40;0.50;;;;;;;22.70;32.08;98315.09;5154772;27;20078;-66
2022/05/16 06:34:19;;;;;;;1.15;0.43;;;;;;;22.69;32.19;98320.72;5153711;27;20034;-66
2022/05/16 06:36:45;;;;;;;2.20;0.40;;;;;;;22.66;32.12;98330.06;5154297;27;20026;-66
2022/05/16 06:39:10;;;;;;;0.98;0.30;;;;;;;22.66;32.79;98326.56;5154203;27;20057;-66
2022/05/16 06:41:36;;;;;;;0.75;0.47;;;;;;;22.65;33.04;98327.63;5154277;27;20042;-66
2022/05/16 06:44:02;;;;;;;3.42;0.50;;;;;;;22.66;33.23;98311.19;5153895;27;20022;-66
2022/05/16 06:46:28;;;;;;;1.73;0.43;;;;;;;22.65;32.82;98303.34;5154252;27;20023;-66
2022/05/16 06:48:54;;;;;;;0.82;0.30;;;;;;;22.69;33.37;98320.72;5150630;27;20382;-66
2022/05/16 06:51:20;;;;;;;2.15;0.45;;;;;;;22.69;33.46;98318.84;5153904;27;20088;-67
2022/05/16 06:53:46;;;;;;;2.08;0.35;;;;;;;22.71;33.64;98316.72;5154134;27;20046;-66
2022/05/16 06:56:12;;;;;;;2.30;0.40;;;;;;;22.73;33.64;98313.00;5154218;27;20370;-67
2022/05/16 06:58:37;;;;;;;2.15;0.43;;;;;;;22.73;33.87;98308.41;5153068;27;20079;-66
2022/05/16 07:01:04;;;;;;;0.65;0.35;;;;;;;22.74;33.90;98311.94;5153058;27;20026;-66
2022/05/16 07:03:32;;;;;;;1.95;0.98;;;;;;;22.73;34.28;98318.38;5153086;27;20106;-67
2022/05/16 07:05:58;;;;;;;2.33;0.50;;;;;;;22.73;33.77;98313.78;5133052;28;20035;-67
2022/05/16 07:08:24;;;;;;;3.95;0.38;;;;;;;22.74;33.41;98320.03;5132970;28;20114;-66
2022/05/16 07:10:50;;;;;;;0.40;0.30;;;;;;;22.73;33.21;98313.78;5134931;27;20113;-67
2022/05/16 07:13:16;;;;;;;0.50;0.28;;;;;;;22.74;33.20;98320.84;5137633;27;20055;-67
2022/05/16 07:15:42;;;;;;;1.55;0.38;;;;;;;22.73;33.39;98316.50;5158031;27;20045;-67
2022/05/16 07:18:08;;;;;;;0.40;0.20;;;;;;;22.69;33.56;98315.34;5157362;27;20055;-67
2022/05/16 07:20:35;;;;;;;1.85;0.40;;;;;;;22.68;32.61;98327.97;5157539;27;20543;-67
2022/05/16 07:23:02;;;;;;;0.32;0.30;;;;;;;22.67;33.25;98310.16;5157689;27;20025;-66
2022/05/16 07:25:28;;;;;;;1.65;0.45;;;;;;;22.66;33.26;98303.13;5157133;27;20026;-67
2022/05/16 07:27:59;;;;;;;1.02;0.50;;;;;;;22.69;33.37;98316.13;5158120;27;20030;-67
2022/05/16 07:30:27;;;;;;;2.42;0.40;;;;;;;22.66;33.39;98318.47;5157180;27;20087;-67
2022/05/16 07:32:55;;;;;;;1.40;0.38;;;;;;;22.65;33.70;98316.84;5157146;27;20117;-66
2022/05/16 07:35:25;;;;;;;1.65;0.65;;;;;;;22.70;33.65;98330.47;5157512;27;20030;-66
2022/05/16 07:37:53;;;;;;;0.35;0.30;;;;;;;22.72;33.37;98309.44;5138418;27;20027;-66
2022/05/16 07:40:20;;;;;;;1.58;0.70;;;;;;;22.73;33.49;98319.19;5152516;27;20501;-65
2022/05/16 07:42:46;;;;;;;1.10;0.30;;;;;;;22.76;32.11;98315.22;5156788;27;20030;-65
2022/05/16 07:45:11;;;;;;;3.78;0.75;;;;;;;22.77;32.67;98314.19;5156399;27;20031;-65
2022/05/16 07:47:37;;;;;;;2.42;0.82;;;;;;;22.78;33.21;98322.03;5157290;27;20038;-66
2022/05/16 07:50:03;;;;;;;2.17;0.77;;;;;;;22.80;33.13;98313.69;5157010;27;20034;-66
2022/05/16 07:52:29;;;;;;;1.38;0.60;;;;;;;22.79;33.29;98310.19;5157283;27;20035;-66
2022/05/16 07:54:55;;;;;;;1.77;0.75;;;;;;;22.79;33.37;98320.16;5156425;27;20030;-66
2022/05/16 07:57:22;;;;;;;1.55;0.60;;;;;;;22.80;33.34;98317.22;5156959;27;20034;-66
2022/05/16 07:59:48;;;;;;;3.13;0.40;;;;;;;22.82;32.85;98304.34;5156721;27;20042;-67
2022/05/16 08:02:14;;;;;;;2.55;0.68;;;;;;;22.81;32.75;98318.03;5156868;27;20027;-67
2022/05/16 08:04:40;;;;;;;1.10;0.45;;;;;;;22.80;32.39;98319.94;5156044;27;20023;-65
2022/05/16 08:07:07;;;;;;;6.85;0.68;;;;;;;22.79;31.97;98315.59;5138170;27;20125;-66
2022/05/16 08:12:31;;;;;;;0.90;0.30;;;;;;;22.74;31.59;98312.75;5141367;27;20164;-66
2022/05/16 08:14:58;;;;;;;0.65;0.40;;;;;;;22.73;32.13;98313.00;5156827;27;20113;-66
2022/05/16 08:17:23;;;;;;;1.80;0.68;;;;;;;22.74;32.08;98312.75;5156694;27;20026;-65
2022/05/16 08:19:50;;;;;;;0.98;0.43;;;;;;;22.74;32.13;98315.44;5155927;27;20392;-66
2022/05/16 08:22:17;;;;;;;1.58;0.30;;;;;;;22.74;31.65;98312.75;5156142;27;20029;-66
2022/05/16 08:24:43;;;;;;;0.45;0.30;;;;;;;22.74;30.84;98309.25;5156171;27;20145;-66
2022/05/16 08:27:09;;;;;;;1.10;0.75;;;;;;;22.74;31.10;98312.75;5137121;27;20189;-66
2022/05/16 08:29:34;;;;;;;0.75;0.50;;;;;;;22.77;31.72;98309.59;5150454;27;20480;-66
2022/05/16 08:32:01;;;;;;;3.22;0.70;;;;;;;22.77;32.17;98292.59;5155939;27;20442;-66
2022/05/16 08:34:27;;;;;;;1.70;0.40;;;;;;;22.77;31.73;98304.19;5156568;27;20035;-66
2022/05/16 08:39:56;;;;;;;1.00;0.50;;;;;;;22.71;31.55;98310.53;5143995;27;20054;-67
2022/05/16 08:42:41;;;;;;;5.47;0.70;;;;;;;22.65;30.94;98314.13;5135532;27;20103;-67
2022/05/16 08:45:34;;;;;;;2.95;0.85;;;;;;;22.60;30.60;98327.47;5111841;27;20088;-66
2022/05/16 08:48:21;;;;;;;10.70;2.85;;;;;;;22.57;31.35;98338.75;5145251;27;20054;-66
2022/05/16 08:51:08;;;;;;;10.18;3.22;;;;;;;22.52;31.83;98334.84;5156430;27;20508;-66
2022/05/16 08:54:01;;;;;;;15.27;4.05;;;;;;;22.51;31.93;98329.66;5155649;27;20035;-66
2022/05/16 08:56:33;;;;;;;6.30;2.15;;;;;;;22.49;31.51;98318.31;5103264;27;20035;-67
2022/05/16 08:59:03;;;;;;;6.40;1.67;;;;;;;22.47;31.09;98320.41;5155027;27;20110;-67
2022/05/16 09:01:50;;;;;;;10.18;3.53;;;;;;;22.46;31.57;98321.47;5154919;27;20098;-65
2022/05/16 09:04:44;;;;;;;6.45;2.03;;;;;;;22.43;31.32;98309.25;5146821;27;20562;-65
2022/05/16 09:07:16;;;;;;;8.60;1.92;;;;;;;22.40;30.97;98315.09;5122241;27;20631;-66
2022/05/16 09:09:41;;;;;;;10.98;2.95;;;;;;;22.39;30.90;98319.63;5154450;27;20033;-66
2022/05/16 09:12:17;;;;;;;9.80;2.13;;;;;;;22.37;31.00;98310.94;5153548;27;20047;-65
2022/05/16 09:14:54;;;;;;;6.35;2.13;;;;;;;22.37;30.72;98308.25;5134376;27;20034;-65
2022/05/16 09:17:57;;;;;;;8.43;2.25;;;;;;;22.37;30.67;98308.25;5151580;27;20488;-66
2022/05/16 09:20:35;;;;;;;9.82;2.58;;;;;;;22.40;30.83;98309.69;5149671;27;20042;-66
2022/05/16 09:23:42;;;;;;;9.30;3.00;;;;;;;22.42;31.10;98296.84;5135993;27;20043;-65
2022/05/16 09:26:14;;;;;;;12.50;3.53;;;;;;;22.46;31.64;98297.22;5133813;27;20047;-66
2022/05/16 09:28:54;;;;;;;9.48;2.65;;;;;;;22.49;31.51;98289.47;5141515;27;20022;-65
2022/05/16 09:31:26;;;;;;;15.05;4.80;;;;;;;22.51;32.09;98284.69;5155066;27;20031;-65
2022/05/16 09:33:55;;;;;;;8.52;2.65;;;;;;;22.55;31.66;98295.81;5153886;27;20026;-65
2022/05/16 09:36:30;;;;;;;11.10;2.55;;;;;;;22.54;31.40;98281.53;5155023;27;20037;-66
2022/05/16 09:38:56;;;;;;;17.85;5.40;;;;;;;22.57;31.92;98295.59;5148945;27;20059;-65
2022/05/16 09:41:34;;;;;;;11.07;3.13;;;;;;;22.59;31.52;98288.94;5133996;27;20106;-64
2022/05/16 09:44:09;;;;;;;12.95;3.53;;;;;;;22.58;31.75;98291.84;5144176;27;20374;-65
2022/05/16 09:46:39;;;;;;;11.02;2.60;;;;;;;22.54;31.24;98295.00;5155140;27;20030;-65
2022/05/16 09:49:13;;;;;;;15.35;3.60;;;;;;;22.50;31.92;98310.00;5147938;27;20499;-65
2022/05/16 09:51:46;;;;;;;10.30;3.22;;;;;;;22.46;32.25;98329.53;5134100;27;20041;-65
2022/05/16 09:54:22;;;;;;;7.50;2.05;;;;;;;22.43;31.83;98319.22;5144074;27;20024;-65
2022/05/16 09:57:02;;;;;;;9.43;2.20;;;;;;;22.37;31.76;98315.53;5154844;27;20027;-65
2022/05/16 09:59:43;;;;;;;6.57;1.38;;;;;;;22.33;31.38;98327.81;5154611;27;20054;-66
2022/05/16 10:02:11;;;;;;;5.97;2.22;;;;;;;22.30;31.84;98328.25;5154432;27;20114;-66
2022/05/16 10:04:44;;;;;;;11.07;2.00;;;;;;;22.23;32.02;98331.03;5153657;27;20038;-66
2022/05/16 10:07:11;;;;;;;8.77;2.30;;;;;;;22.16;32.01;98341.91;5151532;27;20031;-65
2022/05/16 10:09:50;;;;;;;7.13;2.10;;;;;;;22.08;32.23;98350.28;5139647;27;20121;-66
2022/05/16 10:12:18;;;;;;;11.27;1.58;;;;;;;22.01;32.26;98360.31;5150056;27;20050;-66
2022/05/16 10:14:44;;;;;;;2.83;1.45;;;;;;;21.95;31.73;98351.25;5147054;27;20031;-65
2022/05/16 10:17:16;;;;;;;3.03;1.40;;;;;;;21.92;31.77;98351.69;5144894;27;20035;-67
2022/05/16 10:19:42;;;;;;;3.97;1.27;;;;;;;21.87;31.76;98355.06;5135545;27;20496;-67
2022/05/16 10:22:13;;;;;;;2.90;1.17;;;;;;;21.85;31.55;98346.38;5141053;27;20077;-69
2022/05/16 10:24:43;;;;;;;2.45;0.80;;;;;;;21.84;31.32;98343.94;5138290;27;20061;-67
2022/05/16 10:27:12;;;;;;;2.60;0.80;;;;;;;21.82;31.11;98336.09;5150200;27;20066;-65
2022/05/16 10:29:46;;;;;;;2.22;0.57;;;;;;;21.82;31.22;98341.47;5143670;27;20034;-67
2022/05/16 10:35:21;;;;;;;3.80;0.85;;;;;;;21.80;31.58;98338.19;5152470;27;20516;-64
2022/05/16 10:37:51;;;;;;;2.33;0.68;;;;;;;21.77;31.56;98328.66;5133169;27;20107;-66
2022/05/16 10:40:28;;;;;;;1.95;1.10;;;;;;;21.76;31.65;98328.91;5145861;27;20088;-66
2022/05/16 10:43:15;;;;;;;3.63;0.73;;;;;;;21.76;31.22;98324.31;5123046;27;20022;-66
2022/05/16 10:45:47;;;;;;;2.13;0.77;;;;;;;21.74;31.46;98328.28;5140347;27;20038;-67
2022/05/16 10:48:31;;;;;;;4.10;1.00;;;;;;;21.73;31.42;98327.47;5141745;27;20035;-66
2022/05/16 10:51:08;;;;;;;5.07;1.30;;;;;;;21.73;31.91;98332.88;5158328;27;20035;-68
2022/05/16 10:53:52;;;;;;;4.97;1.00;;;;;;;21.74;32.30;98341.75;5158123;27;20034;-66
2022/05/16 10:56:48;;;;;;;3.85;1.17;;;;;;;21.74;32.49;98339.06;5157359;27;20038;-65
2022/05/16 10:59:50;;;;;;;7.43;1.50;;;;;;;21.76;32.46;98347.75;5152298;27;20034;-67
2022/05/16 11:02:42;;;;;;;3.13;1.17;;;;;;;21.73;32.31;98335.56;5146134;27;20149;-66
2022/05/16 11:05:28;;;;;;;6.70;1.63;;;;;;;21.70;32.19;98335.16;5153100;27;20065;-66
2022/05/16 11:08:18;;;;;;;6.88;1.05;;;;;;;21.66;32.21;98344.75;5157777;27;20046;-67
2022/05/16 11:10:57;;;;;;;4.55;0.82;;;;;;;21.60;32.34;98333.81;5147768;27;20393;-65
2022/05/16 11:13:35;;;;;;;7.97;1.08;;;;;;;21.55;32.39;98332.81;5154478;27;20049;-65
2022/05/16 11:16:10;;;;;;;4.45;0.90;;;;;;;21.50;32.45;98331.59;5136856;27;20043;-65
2022/05/16 11:18:41;;;;;;;2.70;0.90;;;;;;;21.42;32.15;98323.81;5138383;27;20457;-65
2022/05/16 11:21:06;;;;;;;2.53;0.75;;;;;;;21.34;32.05;98322.22;5157746;27;20397;-65
2022/05/16 11:23:47;;;;;;;7.47;2.45;;;;;;;21.32;32.15;98315.44;5156410;27;20027;-66
2022/05/16 11:26:34;;;;;;;2.97;0.85;;;;;;;21.29;32.05;98308.59;5150259;27;20087;-65
2022/05/16 11:29:18;;;;;;;2.67;0.70;;;;;;;21.28;31.85;98317.72;5150730;27;20113;-65
2022/05/16 11:32:27;;;;;;;3.95;1.00;;;;;;;21.25;31.89;98304.72;5155719;27;20038;-65
2022/05/16 11:35:01;;;;;;;1.17;0.52;;;;;;;21.21;31.99;98302.69;5155846;27;20045;-65
2022/05/16 11:37:42;;;;;;;3.95;0.52;;;;;;;21.21;32.12;98295.47;5157257;27;20481;-65
2022/05/16 11:40:31;;;;;;;2.13;0.65;;;;;;;21.21;31.88;98286.53;5156837;27;20030;-66
2022/05/16 11:43:23;;;;;;;2.95;0.75;;;;;;;21.22;31.82;98299.78;5155148;27;20122;-64
2022/05/16 11:46:20;;;;;;;7.13;0.90;;;;;;;21.25;32.24;98282.38;5156772;27;20031;-65
2022/05/16 11:49:04;;;;;;;13.65;0.77;;;;;;;21.26;32.03;98294.78;5145387;27;20053;-65
2022/05/16 11:51:54;;;;;;;1.27;0.50;;;;;;;21.27;32.22;98289.19;5140913;27;20043;-65
2022/05/16 11:54:25;;;;;;;1.45;0.38;;;;;;;21.29;32.00;98286.28;5153775;27;20405;-66
2022/05/16 12:02:30;;;;;;;2.35;0.60;;;;;;;21.41;31.84;98308.72;5154724;27;20041;-66
2022/05/16 12:05:29;;;;;;;7.43;0.63;;;;;;;21.44;32.73;98308.28;5137233;27;20118;-67
2022/05/16 12:08:14;;;;;;;4.18;0.65;;;;;;;21.46;32.53;98300.81;5156438;27;20057;-67
2022/05/16 12:11:09;;;;;;;2.75;0.63;;;;;;;21.50;32.46;98317.34;5156809;27;20489;-68
2022/05/16 12:13:56;;;;;;;1.95;0.70;;;;;;;21.53;32.20;98314.19;5135584;27;20071;-67
2022/05/16 12:16:32;;;;;;;3.60;0.70;;;;;;;21.51;32.26;98302.84;5124481;27;20034;-67
2022/05/16 12:19:24;;;;;;;2.75;0.75;;;;;;;21.55;32.24;98312.09;5135404;27;20038;-67
2022/05/16 12:22:13;;;;;;;1.90;0.75;;;;;;;21.55;32.31;98314.78;5136900;27;20027;-67
2022/05/16 12:24:39;;;;;;;4.75;1.17;;;;;;;21.57;32.41;98309.19;5149518;27;20114;-67